Rio Rancho, NM

3:11 AM MST on December 25, 2014 (GMT -0700)
Idalia_and_528 | Change Station
CLOSE
Current Station
Personal Weather Station
Location: Rio Rancho, NM
Elevation: 5180 ft
Nearby Weather Stations

Elev 5180 ft 35.32 °N, 106.59 °W | Updated 10 minutes ago

Overcast
Overcast
32.0 °F
Feels Like 28 °F
N
4.0
Wind Variable Wind from West
Gusts 5.0 mph

Today
High -- | Low -- °F
--% Chance of Precip.
Yesterday
High -- | Low -- °F
Precip. -- in
7:13 AM 4:59 PM
Waxing Crescent, 15% visible
Pressure 29.79 in
Visibility 10.0 miles
Clouds Clear
Windchill 28 °F
Dew Point 5 °F
Humidity 31%
Rainfall 0.00 in
Snow Depth Not available.
UV 0 out of 12
Pollen 1.90 out of 12
Air Quality Not available.
Flu Activity Not available.
METAR KAEG 250955Z AUTO 18006KT 10SM CLR M03/M12 A2979 RMK AO2 T10261124

More Conditions Fewer Conditions

Pressure 29.79 in
Visibility 10.0 miles
Clouds Clear
Windchill 28 °F
Dew Point 5 °F
Humidity 31%
Rainfall 0.00 in
Snow Depth Not available.
UV 0 out of 12
Pollen 1.90 out of 12
Air Quality Not available.
Flu Activity Not available.
METAR KAEG 250955Z AUTO 18006KT 10SM CLR M03/M12 A2979 RMK AO2 T10261124

More Conditions Fewer Conditions

10-Day Weather Forecast

Almanac

Astronomy

Dec. 25, 2014 Rise Set
Actual Time
Civil Twilight
Nautical Twilight
Astronomical Twilight
Moon
Length of Visible Light
Length of Day
Tomorrow will be .
, % of the Moon is Illuminated

Today's Extremes

State Highs State Lows

Community

WunderPhotos

Upload Photos

1,780,254 photos uploaded!

WunderBlogs® & News

Nearby

Air Quality

  Air Quality AQ Index Pollutant
Not available.

Snow Depth

Station Depth Elevation

Earthquake Activity

City Distance Mag. Time & Date
Minimum magnitude displayed is 2.5.

Coastal Water Temperatures

Place Temperature

Nearby Weather Stations